createdAt,value
2018-03-20T00:00:42.965Z,5.70
2018-03-20T00:03:10.177Z,6.18
2018-03-20T00:05:37.446Z,4.93
2018-03-20T00:08:04.568Z,5.68
2018-03-20T00:10:31.374Z,5.53
2018-03-20T00:12:59.178Z,5.32
2018-03-20T00:15:26.964Z,5.55
2018-03-20T00:17:54.338Z,5.28
2018-03-20T00:20:21.648Z,5.32
2018-03-20T00:22:50.583Z,5.37
2018-03-20T00:25:17.635Z,5.00
2018-03-20T00:27:44.961Z,5.12
2018-03-20T00:30:12.199Z,5.47
2018-03-20T00:32:39.161Z,5.57
2018-03-20T00:35:06.010Z,8.82
2018-03-20T00:37:33.277Z,7.93
2018-03-20T00:40:00.769Z,8.23
2018-03-20T00:42:27.885Z,6.57
2018-03-20T00:44:55.296Z,6.68
2018-03-20T00:47:22.495Z,5.85
2018-03-20T00:49:49.558Z,5.25
2018-03-20T00:52:16.300Z,5.30
2018-03-20T00:54:43.032Z,6.00
2018-03-20T00:57:10.680Z,6.22
2018-03-20T00:59:37.782Z,6.55
2018-03-20T01:02:06.318Z,6.35
2018-03-20T01:04:33.640Z,6.15
2018-03-20T01:07:00.868Z,6.47
2018-03-20T01:09:28.592Z,7.20
2018-03-20T01:11:56.049Z,8.45
2018-03-20T01:14:22.827Z,7.53
2018-03-20T01:16:49.898Z,6.70
2018-03-20T01:19:16.980Z,6.93
2018-03-20T01:21:43.786Z,6.43
2018-03-20T01:24:10.543Z,5.97
2018-03-20T01:26:37.697Z,5.93
2018-03-20T01:29:06.015Z,5.82
2018-03-20T01:31:33.062Z,6.65
2018-03-20T01:34:00.323Z,5.80
2018-03-20T01:36:27.961Z,5.70
2018-03-20T01:38:55.592Z,6.07
2018-03-20T01:41:22.956Z,5.68
2018-03-20T01:43:49.782Z,5.55
2018-03-20T01:46:16.880Z,5.07
2018-03-20T01:48:43.816Z,5.78
2018-03-20T01:51:10.939Z,5.18
2018-03-20T01:53:37.969Z,5.65
2018-03-20T01:56:05.428Z,4.97
2018-03-20T01:58:32.825Z,5.65
2018-03-20T02:01:00.287Z,5.20
2018-03-20T02:03:27.869Z,6.15
2018-03-20T02:05:55.139Z,5.18
2018-03-20T02:08:22.267Z,5.30
2018-03-20T02:10:49.508Z,5.12
2018-03-20T02:15:02.094Z,5.55
2018-03-20T02:17:29.327Z,4.97
2018-03-20T02:19:56.262Z,5.70
2018-03-20T02:22:23.914Z,5.10
2018-03-20T02:24:50.723Z,4.90
2018-03-20T02:27:17.476Z,5.35
2018-03-20T02:29:44.238Z,5.12
2018-03-20T02:32:11.375Z,5.03
2018-03-20T02:34:38.203Z,4.85
2018-03-20T02:37:05.792Z,5.05
2018-03-20T02:39:33.339Z,4.82
2018-03-20T02:44:41.336Z,5.28
2018-03-20T02:47:08.462Z,5.22
2018-03-20T02:49:36.424Z,5.72
2018-03-20T02:52:03.519Z,5.57
2018-03-20T02:54:31.024Z,5.65
2018-03-20T02:56:57.980Z,5.62
2018-03-20T02:59:24.855Z,5.87
2018-03-20T03:01:52.183Z,5.50
2018-03-20T03:04:19.316Z,7.25
2018-03-20T03:06:46.337Z,9.18
2018-03-20T03:09:13.064Z,9.68
2018-03-20T03:11:40.698Z,8.43
2018-03-20T03:14:07.785Z,9.95
2018-03-20T03:16:34.840Z,9.07
2018-03-20T03:19:01.545Z,11.00
2018-03-20T03:21:28.432Z,10.70
2018-03-20T03:23:55.623Z,8.57
2018-03-20T03:26:22.404Z,7.60
2018-03-20T03:28:49.790Z,6.25
2018-03-20T03:31:16.508Z,5.80
2018-03-20T03:33:43.679Z,6.90
2018-03-20T03:36:10.691Z,6.00
2018-03-20T03:38:37.747Z,6.12
2018-03-20T03:41:05.256Z,5.80
2018-03-20T03:43:33.557Z,6.20
2018-03-20T03:46:00.440Z,6.05
2018-03-20T03:48:27.216Z,5.82
2018-03-20T03:50:54.384Z,5.12
2018-03-20T03:53:21.368Z,5.80
2018-03-20T03:55:48.385Z,5.28
2018-03-20T03:58:15.167Z,6.18
2018-03-20T04:00:42.143Z,6.10
2018-03-20T04:03:09.196Z,6.00
2018-03-20T04:05:37.020Z,7.45
2018-03-20T04:08:05.139Z,6.57
2018-03-20T04:13:06.200Z,6.93
2018-03-20T04:15:33.569Z,7.10
2018-03-20T04:18:00.699Z,7.43
2018-03-20T04:20:28.455Z,7.55
2018-03-20T04:22:55.426Z,7.78
2018-03-20T04:25:23.240Z,7.85
2018-03-20T04:27:50.303Z,7.55
2018-03-20T04:30:17.357Z,10.43
2018-03-20T04:32:44.442Z,10.05
2018-03-20T04:35:12.488Z,8.10
2018-03-20T04:37:39.460Z,11.68
2018-03-20T04:40:07.293Z,9.38
2018-03-20T04:42:34.468Z,9.40
2018-03-20T04:45:01.780Z,11.23
2018-03-20T04:50:02.390Z,10.38
2018-03-20T04:52:29.370Z,11.25
2018-03-20T04:54:56.174Z,10.70
2018-03-20T04:57:25.697Z,8.90
2018-03-20T04:59:52.778Z,8.95
2018-03-20T05:02:20.339Z,8.55
2018-03-20T05:04:47.525Z,8.63
2018-03-20T05:07:14.617Z,8.73
2018-03-20T05:09:41.850Z,7.90
2018-03-20T05:12:09.032Z,8.52
2018-03-20T05:14:37.033Z,7.12
2018-03-20T05:17:04.455Z,7.07
2018-03-20T05:19:41.831Z,6.32
2018-03-20T05:22:15.234Z,7.72
2018-03-20T05:24:42.681Z,7.50
2018-03-20T05:27:09.892Z,7.90
2018-03-20T05:29:37.041Z,5.90
2018-03-20T05:32:04.449Z,6.20
2018-03-20T05:34:31.087Z,5.50
2018-03-20T05:36:58.097Z,5.75
2018-03-20T05:39:25.427Z,5.90
2018-03-20T05:41:52.385Z,5.70
2018-03-20T05:44:19.804Z,5.53
2018-03-20T05:49:54.386Z,6.00
2018-03-20T05:52:22.025Z,5.68
2018-03-20T05:54:49.053Z,5.95
2018-03-20T05:57:16.511Z,5.30
2018-03-20T05:59:43.736Z,5.30
2018-03-20T06:02:11.116Z,5.12
2018-03-20T06:04:37.964Z,4.68
2018-03-20T06:07:06.456Z,5.18
2018-03-20T06:09:33.360Z,5.15
2018-03-20T06:12:00.530Z,5.87
2018-03-20T06:14:30.122Z,7.78
2018-03-20T06:16:58.427Z,6.07
2018-03-20T06:19:25.314Z,5.85
2018-03-20T06:21:52.573Z,5.78
2018-03-20T06:24:19.531Z,6.68
2018-03-20T06:26:46.610Z,6.47
2018-03-20T06:29:14.095Z,6.70
2018-03-20T06:31:44.230Z,6.95
2018-03-20T06:34:10.991Z,6.70
2018-03-20T06:36:39.194Z,7.05
2018-03-20T06:39:07.340Z,7.55
2018-03-20T06:41:34.372Z,7.12
2018-03-20T06:46:35.240Z,7.05
2018-03-20T06:49:02.195Z,6.75
2018-03-20T06:51:29.323Z,7.00
2018-03-20T06:53:56.254Z,5.45
2018-03-20T06:56:23.620Z,6.10
2018-03-20T06:58:50.708Z,5.90
2018-03-20T07:01:17.739Z,5.62
2018-03-20T07:03:46.314Z,6.43
2018-03-20T07:06:14.973Z,6.28
2018-03-20T07:08:42.641Z,6.60
2018-03-20T07:11:09.971Z,5.50
2018-03-20T07:13:37.358Z,6.25
2018-03-20T07:16:05.938Z,6.32
2018-03-20T07:18:33.305Z,6.40
2018-03-20T07:21:00.867Z,6.10
2018-03-20T07:23:27.727Z,6.90
2018-03-20T07:25:54.392Z,7.40
2018-03-20T07:28:22.224Z,7.03
2018-03-20T07:30:50.344Z,7.30
2018-03-20T07:33:17.236Z,8.93
2018-03-20T07:35:44.911Z,7.75
2018-03-20T07:38:12.192Z,9.18
2018-03-20T07:40:39.892Z,7.18
2018-03-20T07:43:07.054Z,9.55
2018-03-20T07:45:34.297Z,7.90
2018-03-20T07:48:01.230Z,9.35
2018-03-20T07:50:28.518Z,9.52
2018-03-20T07:52:55.356Z,10.23
2018-03-20T07:55:22.523Z,10.70
2018-03-20T07:57:49.422Z,9.27
2018-03-20T08:00:16.940Z,10.43
2018-03-20T08:02:43.808Z,10.60
2018-03-20T08:05:10.636Z,11.27
2018-03-20T08:07:37.448Z,10.02
2018-03-20T08:10:04.515Z,10.27
2018-03-20T08:12:31.327Z,12.45
2018-03-20T08:14:58.478Z,10.82
2018-03-20T08:17:26.135Z,10.95
2018-03-20T08:19:52.923Z,11.75
2018-03-20T08:22:19.859Z,11.20
2018-03-20T08:24:46.463Z,11.82
2018-03-20T08:27:13.706Z,11.38
2018-03-20T08:29:40.710Z,11.07
2018-03-20T08:32:08.254Z,11.60
2018-03-20T08:34:35.148Z,8.85
2018-03-20T08:37:03.473Z,8.55
2018-03-20T08:39:30.774Z,9.60
2018-03-20T08:41:58.256Z,10.23
2018-03-20T08:44:25.459Z,9.93
2018-03-20T08:46:52.372Z,10.13
2018-03-20T08:49:19.624Z,11.18
2018-03-20T08:51:46.503Z,10.05
2018-03-20T08:54:13.507Z,9.05
2018-03-20T08:56:40.456Z,9.30
2018-03-20T08:59:07.541Z,9.75
2018-03-20T09:01:34.538Z,11.68
2018-03-20T09:04:01.558Z,9.85
2018-03-20T09:06:29.012Z,9.30
2018-03-20T09:08:55.756Z,9.38
2018-03-20T09:11:22.782Z,9.05
2018-03-20T09:13:49.864Z,9.98
2018-03-20T09:16:16.915Z,7.20
2018-03-20T09:18:43.824Z,8.27
2018-03-20T09:21:10.566Z,7.72
2018-03-20T09:23:37.843Z,7.30
2018-03-20T09:26:04.454Z,7.95
2018-03-20T09:28:31.271Z,6.45
2018-03-20T09:30:57.972Z,6.22
2018-03-20T09:33:25.121Z,6.00
2018-03-20T09:35:52.154Z,6.43
2018-03-20T09:38:22.054Z,6.07
2018-03-20T09:40:49.141Z,6.22
2018-03-20T09:43:15.911Z,5.47
2018-03-20T09:45:42.818Z,5.15
2018-03-20T09:48:09.692Z,5.53
2018-03-20T09:50:36.768Z,6.05
2018-03-20T09:53:03.841Z,5.30
2018-03-20T09:55:30.918Z,6.37
2018-03-20T09:57:58.374Z,5.45
2018-03-20T10:00:25.329Z,5.03
2018-03-20T10:02:53.034Z,4.90
2018-03-20T10:05:20.940Z,5.10
2018-03-20T10:07:48.094Z,4.50
2018-03-20T10:10:14.937Z,4.32
2018-03-20T10:12:42.228Z,4.68
2018-03-20T10:15:09.083Z,5.40
2018-03-20T10:17:36.269Z,5.30
2018-03-20T10:20:03.249Z,5.65
2018-03-20T10:22:30.959Z,5.43
2018-03-20T10:24:58.044Z,4.60
2018-03-20T10:27:25.647Z,5.10
2018-03-20T10:29:53.251Z,5.40
2018-03-20T10:32:21.588Z,5.80
2018-03-20T10:34:49.075Z,5.60
2018-03-20T10:37:16.250Z,5.05
2018-03-20T10:39:43.887Z,4.97
2018-03-20T10:42:11.376Z,5.03
2018-03-20T10:44:38.354Z,5.60
2018-03-20T10:47:06.375Z,6.10
2018-03-20T10:49:33.994Z,6.20
2018-03-20T10:52:01.756Z,5.82
2018-03-20T10:54:29.204Z,5.60
2018-03-20T10:56:56.599Z,4.95
2018-03-20T10:59:23.849Z,5.45
2018-03-20T11:01:50.898Z,5.50
2018-03-20T11:04:18.246Z,5.47
2018-03-20T11:06:45.073Z,5.57
2018-03-20T11:09:12.255Z,6.05
2018-03-20T11:11:39.470Z,6.00
2018-03-20T11:14:07.704Z,6.57
2018-03-20T11:16:35.039Z,6.30
2018-03-20T11:19:03.268Z,5.87
2018-03-20T11:21:30.978Z,6.68
2018-03-20T11:23:58.109Z,6.95
2018-03-20T11:26:25.122Z,8.98
2018-03-20T11:28:58.977Z,7.50
2018-03-20T11:31:26.288Z,6.32
2018-03-20T11:33:53.762Z,6.90
2018-03-20T11:36:21.186Z,6.78
2018-03-20T11:38:49.083Z,6.07
2018-03-20T11:41:16.531Z,6.20
2018-03-20T11:43:43.492Z,6.28
2018-03-20T11:46:10.655Z,6.45
2018-03-20T11:48:37.823Z,4.72
2018-03-20T11:51:05.078Z,5.82
2018-03-20T11:53:31.943Z,5.25
2018-03-20T11:55:58.595Z,6.22
2018-03-20T11:58:26.183Z,6.55
2018-03-20T12:00:53.650Z,6.85
2018-03-20T12:03:21.311Z,6.37
2018-03-20T12:05:48.358Z,6.87
2018-03-20T12:08:27.456Z,7.00
2018-03-20T12:10:55.203Z,7.70
2018-03-20T12:13:22.327Z,8.57
2018-03-20T12:15:49.331Z,7.47
2018-03-20T12:18:17.026Z,7.62
2018-03-20T12:20:44.506Z,9.02
2018-03-20T12:23:12.424Z,7.87
2018-03-20T12:25:39.966Z,7.70
2018-03-20T12:28:06.810Z,8.38
2018-03-20T12:30:35.004Z,10.23
2018-03-20T12:33:01.822Z,8.27
2018-03-20T12:35:31.673Z,6.35
2018-03-20T12:37:59.252Z,6.70
2018-03-20T12:40:25.906Z,6.35
2018-03-20T12:42:53.145Z,6.28
2018-03-20T12:45:20.472Z,6.57
2018-03-20T12:47:47.520Z,7.10
2018-03-20T12:50:14.652Z,7.43
2018-03-20T12:52:41.729Z,7.40
2018-03-20T12:55:09.139Z,7.40
2018-03-20T12:57:36.490Z,6.18
2018-03-20T13:00:03.272Z,6.20
2018-03-20T13:02:30.202Z,7.40
2018-03-20T13:04:57.627Z,5.25
2018-03-20T13:07:24.782Z,6.82
2018-03-20T13:09:51.859Z,7.55
2018-03-20T13:12:19.081Z,7.40
2018-03-20T13:14:45.867Z,7.72
2018-03-20T13:17:13.249Z,6.93
2018-03-20T13:19:41.208Z,7.85
2018-03-20T13:22:12.047Z,7.30
2018-03-20T13:24:39.225Z,7.35
2018-03-20T13:27:06.472Z,7.80
2018-03-20T13:29:35.154Z,7.85
2018-03-20T13:32:02.670Z,7.18
2018-03-20T13:34:29.439Z,7.00
2018-03-20T13:36:56.445Z,6.75
2018-03-20T13:39:23.565Z,6.60
2018-03-20T13:41:50.178Z,7.15
2018-03-20T13:44:17.221Z,6.62
2018-03-20T13:46:44.224Z,7.37
2018-03-20T13:49:11.122Z,6.82
2018-03-20T13:51:38.021Z,8.50
2018-03-20T13:54:04.985Z,7.37
2018-03-20T13:56:31.886Z,6.75
2018-03-20T13:58:59.377Z,7.55
2018-03-20T14:01:26.086Z,8.13
2018-03-20T14:03:52.529Z,7.97
2018-03-20T14:06:19.603Z,7.78
2018-03-20T14:08:46.660Z,7.87
2018-03-20T14:11:14.042Z,7.03
2018-03-20T14:13:42.315Z,7.62
2018-03-20T14:16:16.118Z,7.37
2018-03-20T14:18:42.946Z,6.55
2018-03-20T14:21:10.280Z,6.78
2018-03-20T14:23:37.319Z,5.80
2018-03-20T14:26:04.065Z,6.35
2018-03-20T14:28:31.253Z,16.17
2018-03-20T14:30:58.044Z,22.85
2018-03-20T14:33:25.347Z,25.58
2018-03-20T14:35:52.898Z,30.85
2018-03-20T14:38:20.011Z,29.08
2018-03-20T14:40:47.331Z,30.25
2018-03-20T14:43:13.995Z,20.12
2018-03-20T14:45:40.712Z,20.48
2018-03-20T14:48:07.850Z,26.30
2018-03-20T14:50:35.127Z,30.90
2018-03-20T14:53:01.738Z,32.88
2018-03-20T14:55:28.671Z,33.97
2018-03-20T14:57:56.520Z,38.20
2018-03-20T15:00:23.177Z,35.35
2018-03-20T15:02:50.146Z,38.53
2018-03-20T15:05:17.013Z,36.40
2018-03-20T15:07:43.805Z,31.77
2018-03-20T15:10:10.562Z,30.65
2018-03-20T15:12:37.253Z,32.53
2018-03-20T15:15:04.303Z,32.47
2018-03-20T15:17:31.451Z,35.28
2018-03-20T15:19:58.618Z,31.98
2018-03-20T15:22:25.667Z,33.00
2018-03-20T15:24:53.116Z,33.33
2018-03-20T15:27:19.920Z,36.53
2018-03-20T15:29:46.511Z,37.38
2018-03-20T15:32:13.298Z,37.40
2018-03-20T15:34:41.337Z,36.13
2018-03-20T15:37:08.305Z,46.00
2018-03-20T15:39:35.342Z,51.65
2018-03-20T15:42:02.450Z,58.13
2018-03-20T15:44:29.438Z,59.20
2018-03-20T15:46:56.522Z,63.67
2018-03-20T15:49:24.073Z,69.28
2018-03-20T15:51:51.006Z,63.30
2018-03-20T15:54:17.832Z,63.30
2018-03-20T15:56:44.686Z,61.95
2018-03-20T15:59:11.436Z,63.38
2018-03-20T16:01:38.127Z,58.55
2018-03-20T16:04:05.825Z,55.03
2018-03-20T16:06:32.679Z,57.88
2018-03-20T16:08:59.948Z,53.60
2018-03-20T16:11:26.742Z,52.00
2018-03-20T16:13:54.142Z,49.58
2018-03-20T16:16:21.040Z,42.08
2018-03-20T16:18:47.738Z,28.12
2018-03-20T16:21:14.386Z,21.27
2018-03-20T16:23:40.988Z,13.98
2018-03-20T16:26:08.519Z,16.10
2018-03-20T16:28:35.143Z,15.98
2018-03-20T16:31:02.428Z,17.45
2018-03-20T16:33:28.828Z,20.45
2018-03-20T16:35:55.542Z,21.70
2018-03-20T16:38:22.434Z,20.05
2018-03-20T16:40:49.174Z,18.50
2018-03-20T16:43:16.143Z,17.50
2018-03-20T16:45:43.395Z,16.48
2018-03-20T16:48:10.092Z,20.77
2018-03-20T16:50:36.998Z,23.02
2018-03-20T16:53:03.703Z,21.05
2018-03-20T16:55:31.052Z,20.27
2018-03-20T16:57:58.004Z,20.62
2018-03-20T17:00:24.832Z,22.85
2018-03-20T17:02:51.899Z,22.23
2018-03-20T17:05:19.223Z,23.65
2018-03-20T17:07:46.563Z,19.73
2018-03-20T17:10:13.024Z,24.02
2018-03-20T17:12:40.110Z,29.75
2018-03-20T17:15:07.725Z,25.40
2018-03-20T17:17:35.396Z,22.20
2018-03-20T17:20:03.239Z,21.67
2018-03-20T17:22:30.409Z,22.23
2018-03-20T17:24:57.418Z,21.80
2018-03-20T17:27:24.326Z,22.67
2018-03-20T17:29:51.268Z,22.90
2018-03-20T17:32:18.150Z,23.58
2018-03-20T17:34:44.690Z,24.50
2018-03-20T17:37:11.460Z,23.23
2018-03-20T17:39:38.052Z,26.83
2018-03-20T17:42:05.738Z,24.33
2018-03-20T17:44:33.626Z,22.92
2018-03-20T17:47:00.328Z,25.65
2018-03-20T17:49:27.372Z,25.85
2018-03-20T17:51:54.252Z,24.98
2018-03-20T17:54:20.830Z,24.20
2018-03-20T17:56:48.375Z,27.20
2018-03-20T17:59:15.506Z,27.75
2018-03-20T18:01:42.443Z,26.77
2018-03-20T18:04:09.630Z,23.85
2018-03-20T18:06:36.214Z,26.20
2018-03-20T18:09:04.817Z,25.62
2018-03-20T18:11:31.780Z,28.85
2018-03-20T18:13:58.426Z,30.83
2018-03-20T18:16:25.528Z,32.25
2018-03-20T18:18:52.585Z,33.83
2018-03-20T18:21:20.643Z,35.30
2018-03-20T18:23:48.927Z,36.78
2018-03-20T18:26:17.907Z,39.38
2018-03-20T18:28:44.379Z,40.12
2018-03-20T18:31:11.079Z,40.60
2018-03-20T18:33:37.948Z,41.33
2018-03-20T18:36:05.872Z,39.17
2018-03-20T18:38:32.869Z,60.47
2018-03-20T18:41:00.690Z,60.20
2018-03-20T18:43:27.270Z,57.92
2018-03-20T18:45:54.120Z,63.87
2018-03-20T18:48:20.638Z,68.22
2018-03-20T18:50:48.164Z,84.97
2018-03-20T18:53:15.448Z,82.22
2018-03-20T18:55:43.656Z,96.28
2018-03-20T18:58:10.372Z,106.18
2018-03-20T19:00:37.006Z,100.32
2018-03-20T19:03:03.996Z,94.45
2018-03-20T19:05:30.778Z,78.37
2018-03-20T19:07:57.957Z,52.35
2018-03-20T19:10:25.298Z,58.60
2018-03-20T19:12:52.194Z,66.22
2018-03-20T19:15:19.086Z,67.53
2018-03-20T19:17:45.617Z,70.90
2018-03-20T19:20:12.303Z,77.87
2018-03-20T19:22:39.664Z,84.93
2018-03-20T19:25:06.445Z,89.25
2018-03-20T19:27:34.865Z,96.72
2018-03-20T19:30:01.704Z,107.87
2018-03-20T19:32:28.754Z,113.35
2018-03-20T19:34:56.041Z,107.95
2018-03-20T19:37:23.108Z,77.55
2018-03-20T19:39:50.110Z,119.45
2018-03-20T19:42:16.924Z,123.78
2018-03-20T19:44:43.511Z,52.95
2018-03-20T19:47:11.019Z,51.13
2018-03-20T19:49:37.754Z,173.73
2018-03-20T19:52:04.643Z,132.05
2018-03-20T19:54:31.940Z,112.78
2018-03-20T19:56:58.784Z,96.53
2018-03-20T19:59:25.614Z,95.45
2018-03-20T20:01:52.511Z,111.37
2018-03-20T20:04:19.284Z,97.35
2018-03-20T20:06:46.430Z,98.90
2018-03-20T20:09:13.256Z,101.85
2018-03-20T20:11:40.146Z,138.12
2018-03-20T20:14:07.367Z,126.20
2018-03-20T20:16:34.411Z,117.87
2018-03-20T20:19:02.386Z,118.80
2018-03-20T20:21:29.570Z,122.70
2018-03-20T20:23:56.733Z,125.00
2018-03-20T20:26:23.615Z,131.95
2018-03-20T20:28:50.871Z,133.50
2018-03-20T20:31:17.775Z,126.03
2018-03-20T20:33:45.342Z,128.48
2018-03-20T20:36:11.977Z,128.12
2018-03-20T20:38:38.887Z,139.93
2018-03-20T20:41:06.011Z,141.55
2018-03-20T20:43:32.910Z,143.23
2018-03-20T20:45:59.956Z,133.60
2018-03-20T20:48:26.914Z,135.98
2018-03-20T20:50:53.727Z,106.68
2018-03-20T20:53:20.602Z,82.57
2018-03-20T20:55:47.298Z,66.80
2018-03-20T20:58:14.197Z,59.85
2018-03-20T21:03:14.343Z,103.55
2018-03-20T21:05:41.246Z,96.20
2018-03-20T21:08:08.322Z,94.80
2018-03-20T21:10:35.128Z,90.78
2018-03-20T21:13:02.014Z,79.10
2018-03-20T21:15:28.741Z,80.57
2018-03-20T21:17:55.530Z,83.62
2018-03-20T21:20:22.270Z,83.07
2018-03-20T21:22:49.078Z,85.20
2018-03-20T21:25:16.189Z,85.68
2018-03-20T21:27:43.314Z,79.75
2018-03-20T21:30:10.196Z,73.53
2018-03-20T21:32:37.304Z,74.72
2018-03-20T21:35:04.307Z,76.68
2018-03-20T21:37:31.522Z,73.78
2018-03-20T21:39:58.603Z,72.90
2018-03-20T21:42:25.591Z,72.75
2018-03-20T21:44:52.255Z,71.65
2018-03-20T21:47:19.248Z,77.87
2018-03-20T21:49:46.237Z,72.62
2018-03-20T21:52:12.961Z,75.75
2018-03-20T21:54:39.954Z,69.85
2018-03-20T21:57:07.041Z,68.47
2018-03-20T21:59:33.705Z,75.65
2018-03-20T22:02:00.422Z,75.40
2018-03-20T22:04:27.155Z,78.78
2018-03-20T22:06:55.119Z,74.47
2018-03-20T22:09:21.723Z,64.82
2018-03-20T22:11:48.437Z,62.05
2018-03-20T22:14:15.103Z,58.30
2018-03-20T22:16:42.126Z,53.78
2018-03-20T22:19:08.886Z,61.72
2018-03-20T22:21:36.190Z,62.28
2018-03-20T22:24:02.813Z,55.05
2018-03-20T22:26:29.535Z,54.03
2018-03-20T22:28:56.237Z,52.08
2018-03-20T22:31:23.429Z,47.20
2018-03-20T22:33:50.337Z,43.75
2018-03-20T22:36:17.514Z,43.85
2018-03-20T22:38:44.537Z,38.65
2018-03-20T22:41:11.448Z,40.38
2018-03-20T22:43:38.140Z,42.05
2018-03-20T22:46:05.263Z,36.20
2018-03-20T22:48:32.290Z,38.20
2018-03-20T22:50:58.994Z,37.33
2018-03-20T22:53:25.686Z,40.63
2018-03-20T22:55:53.303Z,40.00
2018-03-20T22:58:20.010Z,39.45
2018-03-20T23:00:46.941Z,41.08
2018-03-20T23:03:13.569Z,41.20
2018-03-20T23:05:40.021Z,43.53
2018-03-20T23:08:07.536Z,45.83
2018-03-20T23:10:34.328Z,46.55
2018-03-20T23:13:01.141Z,48.30
2018-03-20T23:15:27.859Z,43.20
2018-03-20T23:17:54.679Z,41.40
2018-03-20T23:20:21.028Z,41.17
2018-03-20T23:22:47.819Z,39.20
2018-03-20T23:25:15.002Z,34.17
2018-03-20T23:27:42.150Z,32.95
2018-03-20T23:30:08.935Z,35.40
2018-03-20T23:32:35.534Z,32.08
2018-03-20T23:35:02.445Z,32.17
2018-03-20T23:37:29.127Z,38.00
2018-03-20T23:39:55.793Z,34.70
2018-03-20T23:42:22.423Z,40.85
2018-03-20T23:44:49.158Z,38.30
2018-03-20T23:47:17.491Z,38.47
2018-03-20T23:49:44.062Z,39.13
2018-03-20T23:52:10.674Z,29.80
2018-03-20T23:54:37.656Z,29.98
2018-03-20T23:57:04.949Z,31.25
2018-03-20T23:59:31.764Z,22.67
